Time;durP1;ratioP1;P1;durP2;ratioP2;P2;SDS_P1;SDS_P2;PMS_P1;PMS_P2;Temp;Humidity;BMP_temperature;BMP_pressure;BME280_temperature;BME280_humidity;BME280_pressure;Samples;Min_cycle;Max_cycle;Signal;HPM_P1;HPM_P2
2023/02/10 00:01:16;;;;;;;19.97;11.67;;;;;;;2.92;47.68;101867.88;5049900;27;96921;-78
2023/02/10 00:03:42;;;;;;;22.77;12.53;;;;;;;2.85;48.23;101862.53;5066359;27;97122;-79
2023/02/10 00:06:09;;;;;;;21.97;11.60;;;;;;;2.88;48.12;101866.06;5019963;27;101655;-80
2023/02/10 00:08:35;;;;;;;21.77;12.37;;;;;;;2.90;47.94;101869.56;5042397;27;101411;-77
2023/02/10 00:11:04;;;;;;;20.87;11.87;;;;;;;2.86;47.99;101869.47;5057398;27;97348;-78
2023/02/10 00:13:30;;;;;;;19.67;11.33;;;;;;;2.88;47.57;101881.66;5037699;27;97246;-80
2023/02/10 00:16:00;;;;;;;20.33;11.70;;;;;;;2.72;47.76;101853.59;5036110;27;98094;-78
2023/02/10 00:18:27;;;;;;;18.27;11.73;;;;;;;2.84;47.76;101874.63;5040149;27;97551;-84
2023/02/10 00:20:52;;;;;;;20.07;11.77;;;;;;;2.86;48.00;101879.84;5054162;27;97604;-78
2023/02/10 00:23:18;;;;;;;20.30;11.10;;;;;;;2.68;48.02;101854.38;5050755;27;97172;-79
2023/02/10 00:25:44;;;;;;;19.73;11.97;;;;;;;2.89;48.12;101891.16;5016254;27;101544;-78
2023/02/10 00:28:09;;;;;;;21.23;11.93;;;;;;;2.86;48.11;101882.44;5016282;27;101901;-78
2023/02/10 00:30:36;;;;;;;27.60;11.83;;;;;;;2.85;48.20;101878.97;5048189;27;97080;-77
2023/02/10 00:33:02;;;;;;;23.77;12.33;;;;;;;2.86;48.20;101878.13;5036623;27;98076;-79
2023/02/10 00:35:27;;;;;;;19.10;12.33;;;;;;;2.80;48.32;101862.44;5056945;27;101484;-78
2023/02/10 00:37:53;;;;;;;20.57;12.63;;;;;;;2.80;47.98;101872.81;5037859;27;101628;-77
2023/02/10 00:40:19;;;;;;;22.73;13.10;;;;;;;2.65;48.33;101842.22;5054805;27;97348;-78
2023/02/10 00:42:44;;;;;;;20.83;12.07;;;;;;;2.83;47.87;101874.59;5055500;27;97250;-78
2023/02/10 00:45:10;;;;;;;20.83;11.47;;;;;;;2.71;48.05;101855.31;5055810;27;98608;-77
2023/02/10 00:47:35;;;;;;;18.20;10.97;;;;;;;2.83;47.77;101882.38;5033151;27;101263;-79
2023/02/10 00:50:02;;;;;;;21.03;11.20;;;;;;;2.83;47.96;101891.03;5059233;27;96698;-78
2023/02/10 00:52:27;;;;;;;20.83;11.67;;;;;;;2.81;47.97;101884.91;5035619;27;97566;-84
2023/02/10 00:54:53;;;;;;;22.43;13.20;;;;;;;2.78;47.88;101884.00;5054011;27;101597;-78
2023/02/10 00:57:18;;;;;;;20.33;12.33;;;;;;;2.71;48.02;101865.69;5051674;27;101503;-78
2023/02/10 00:59:44;;;;;;;15.87;10.50;;;;;;;2.79;48.17;101886.59;5063927;27;97296;-78
2023/02/10 01:02:09;;;;;;;18.17;11.20;;;;;;;2.76;48.17;101888.25;5031381;27;97228;-77
2023/02/10 01:04:35;;;;;;;20.90;10.53;;;;;;;2.74;48.36;101888.22;5050404;27;101805;-79
2023/02/10 01:07:01;;;;;;;19.93;11.93;;;;;;;2.70;48.17;101886.38;5048533;27;100637;-77
2023/02/10 01:09:26;;;;;;;20.27;11.53;;;;;;;2.68;48.54;101885.50;5050066;27;97104;-81
2023/02/10 01:11:52;;;;;;;24.70;12.37;;;;;;;2.66;48.44;101884.59;5047591;27;96970;-80
2023/02/10 01:14:17;;;;;;;19.97;11.83;;;;;;;2.61;48.23;101878.41;5029177;27;101536;-77
2023/02/10 01:16:43;;;;;;;17.97;11.27;;;;;;;2.61;48.85;101881.00;5052379;27;97525;-78
2023/02/10 01:19:09;;;;;;;20.40;12.17;;;;;;;2.41;48.85;101852.00;5038264;27;97550;-78
2023/02/10 01:21:36;;;;;;;23.03;12.97;;;;;;;2.54;48.71;101876.53;5049872;27;97660;-78
2023/02/10 01:24:03;;;;;;;23.23;12.47;;;;;;;2.42;48.79;101858.97;5045129;27;102076;-78
2023/02/10 01:26:30;;;;;;;24.37;14.57;;;;;;;2.38;48.72;101846.75;5033962;27;99357;-79
2023/02/10 01:28:57;;;;;;;21.93;12.43;;;;;;;2.45;48.88;101853.84;5042149;27;97034;-80
2023/02/10 01:31:23;;;;;;;23.07;12.03;;;;;;;2.41;48.45;101842.50;5034791;27;96884;-83
2023/02/10 01:33:53;;;;;;;22.90;12.57;;;;;;;2.50;48.72;101857.41;5050126;27;101737;-79
2023/02/10 01:36:21;;;;;;;18.90;11.90;;;;;;;2.23;48.80;101814.44;5044416;27;98265;-81
2023/02/10 01:38:46;;;;;;;21.87;12.37;;;;;;;2.52;48.93;101862.63;5043501;27;98031;-80
2023/02/10 01:41:14;;;;;;;23.97;13.03;;;;;;;2.48;48.65;101862.56;5054124;27;96973;-78
2023/02/10 01:44:18;;;;;;;21.77;11.97;;;;;;;2.49;48.84;101855.66;5024795;27;102013;-77
2023/02/10 01:46:43;;;;;;;19.13;11.00;;;;;;;2.32;49.05;101826.75;4986090;27;101903;-77
2023/02/10 01:49:11;;;;;;;19.23;11.97;;;;;;;2.46;48.83;101851.28;5032653;27;97110;-77
2023/02/10 01:51:42;;;;;;;20.77;11.83;;;;;;;2.29;48.92;101815.44;5038824;27;96783;-77
2023/02/10 01:54:12;;;;;;;23.67;12.23;;;;;;;2.41;48.79;101837.31;5065271;27;98585;-82
2023/02/10 01:56:38;;;;;;;19.27;11.07;;;;;;;2.44;48.60;101840.03;5044212;27;101697;-77
2023/02/10 01:59:05;;;;;;;19.00;11.30;;;;;;;2.50;48.79;101849.63;5050056;27;97106;-77
2023/02/10 02:01:30;;;;;;;19.93;11.80;;;;;;;2.47;48.43;101849.56;5040593;27;96786;-78
2023/02/10 02:03:57;;;;;;;17.67;10.93;;;;;;;2.46;48.63;101853.88;5036822;27;101411;-79
2023/02/10 02:06:22;;;;;;;18.00;11.37;;;;;;;2.49;48.49;101847.88;5070966;27;98706;-77
2023/02/10 02:08:48;;;;;;;18.30;11.50;;;;;;;2.44;48.74;101852.06;5070316;27;97125;-77
2023/02/10 02:11:47;;;;;;;16.57;10.33;;;;;;;2.35;48.54;101849.28;5040404;27;97160;-80
2023/02/10 02:14:45;;;;;;;19.57;11.57;;;;;;;2.46;48.37;101879.78;5047666;27;101900;-82
2023/02/10 02:17:40;;;;;;;19.63;11.50;;;;;;;2.43;48.51;101869.34;5043156;27;101410;-79
2023/02/10 02:23:26;;;;;;;15.10;9.67;;;;;;;2.46;48.41;101873.75;5059742;27;96876;-77
2023/02/10 02:26:19;;;;;;;20.27;11.23;;;;;;;2.46;48.25;101878.91;5047501;27;101502;-79
2023/02/10 02:29:03;;;;;;;21.57;12.70;;;;;;;2.43;48.53;101871.94;5060589;27;98933;-80
2023/02/10 02:31:53;;;;;;;19.53;10.93;;;;;;;2.42;48.42;101866.75;5059964;27;96850;-82
2023/02/10 02:34:37;;;;;;;18.80;11.87;;;;;;;2.38;48.13;101865.75;5059107;27;97082;-78
2023/02/10 02:37:17;;;;;;;18.33;10.97;;;;;;;2.31;48.51;101855.22;5060316;27;100872;-78
2023/02/10 02:39:43;;;;;;;18.53;11.13;;;;;;;2.41;48.57;101875.34;5052876;27;101506;-78
2023/02/10 02:42:08;;;;;;;21.23;11.73;;;;;;;2.40;48.46;101874.47;5034206;27;97154;-78
2023/02/10 02:44:34;;;;;;;18.73;11.70;;;;;;;2.40;48.42;101874.47;5065917;27;97354;-77
2023/02/10 02:47:14;;;;;;;17.53;10.67;;;;;;;2.37;48.10;101871.81;5020778;27;101349;-77
2023/02/10 02:50:26;;;;;;;17.90;11.33;;;;;;;2.35;48.51;101864.81;5047938;27;101211;-77
2023/02/10 02:53:01;;;;;;;22.30;11.63;;;;;;;2.35;48.66;101872.59;4953618;28;97186;-80
2023/02/10 02:56:00;;;;;;;18.90;11.20;;;;;;;2.34;48.69;101863.09;5051957;27;96907;-77
2023/02/10 02:58:40;;;;;;;21.60;11.17;;;;;;;2.34;48.55;101869.13;5049933;27;101663;-77
2023/02/10 03:01:14;;;;;;;19.90;11.50;;;;;;;2.31;48.44;101868.19;5046785;27;101802;-77
2023/02/10 03:03:40;;;;;;;20.03;11.90;;;;;;;2.31;48.44;101866.47;5037858;27;97859;-80
2023/02/10 03:06:06;;;;;;;17.87;10.90;;;;;;;2.32;48.31;101865.63;5030575;27;97282;-77
2023/02/10 03:08:34;;;;;;;23.07;11.87;;;;;;;2.25;48.78;101851.66;5047800;27;101712;-85
2023/02/10 03:11:00;;;;;;;18.13;11.03;;;;;;;2.30;48.82;101869.91;5040656;27;97336;-77
2023/02/10 03:13:25;;;;;;;18.80;11.50;;;;;;;2.22;48.95;101855.88;5065281;27;97166;-77
2023/02/10 03:15:51;;;;;;;18.87;11.43;;;;;;;2.08;48.52;101824.44;5037799;27;97601;-78
2023/02/10 03:18:16;;;;;;;21.00;11.47;;;;;;;2.14;48.79;101841.88;5045429;27;101397;-80
2023/02/10 03:20:43;;;;;;;20.10;11.07;;;;;;;2.28;48.97;101866.41;5038058;27;97576;-77
2023/02/10 03:23:09;;;;;;;18.63;11.50;;;;;;;2.27;48.85;101864.66;5037787;27;96782;-78
2023/02/10 03:25:35;;;;;;;21.13;12.13;;;;;;;2.29;48.88;101870.72;5049548;27;96837;-77
2023/02/10 03:28:01;;;;;;;17.97;10.63;;;;;;;2.27;49.00;101872.44;5050055;27;97834;-80
2023/02/10 03:30:27;;;;;;;20.83;11.57;;;;;;;2.24;48.62;101873.22;5047462;27;97395;-82
2023/02/10 03:32:53;;;;;;;17.93;11.03;;;;;;;2.25;48.96;101890.53;5048120;27;97093;-79
2023/02/10 03:35:19;;;;;;;21.23;11.90;;;;;;;2.16;48.74;101877.34;5032087;27;98270;-79
2023/02/10 03:37:45;;;;;;;21.97;12.57;;;;;;;2.22;48.93;101884.38;5051858;27;100985;-79
2023/02/10 03:40:11;;;;;;;18.90;11.43;;;;;;;2.02;48.97;101861.44;5035132;27;101451;-80
2023/02/10 03:42:37;;;;;;;20.30;11.77;;;;;;;2.19;49.46;101890.38;5039980;27;97172;-81
2023/02/10 03:45:03;;;;;;;18.47;12.37;;;;;;;2.24;48.80;101898.25;5038515;27;97468;-79
2023/02/10 03:47:28;;;;;;;19.47;11.77;;;;;;;2.09;49.13;101875.41;5037393;27;101409;-79
2023/02/10 03:49:54;;;;;;;20.80;11.70;;;;;;;2.19;49.11;101898.13;5052334;27;101326;-80
2023/02/10 03:52:19;;;;;;;20.37;12.20;;;;;;;2.16;49.17;101887.69;5034090;27;97103;-80
2023/02/10 03:54:45;;;;;;;20.47;12.73;;;;;;;2.14;49.25;101886.78;5015770;27;97459;-80
2023/02/10 03:57:11;;;;;;;21.43;12.37;;;;;;;2.17;49.15;101897.22;5044820;27;101682;-79
2023/02/10 03:59:37;;;;;;;19.63;11.87;;;;;;;2.11;49.26;101893.59;5030699;27;101228;-79
2023/02/10 04:02:03;;;;;;;21.53;12.80;;;;;;;2.01;49.45;101883.00;5050024;27;97548;-77
2023/02/10 04:04:28;;;;;;;20.03;11.63;;;;;;;2.14;49.70;101907.50;5042630;27;96963;-78
2023/02/10 04:06:54;;;;;;;27.17;13.53;;;;;;;1.98;49.38;101871.69;5039428;27;101605;-77
2023/02/10 04:09:20;;;;;;;21.30;12.90;;;;;;;2.09;49.54;101903.91;5031056;27;100607;-77
2023/02/10 04:11:45;;;;;;;22.50;12.90;;;;;;;2.08;49.56;101902.16;5033142;27;96723;-77
2023/02/10 04:14:11;;;;;;;21.13;12.57;;;;;;;2.10;49.53;101908.28;5049706;27;97335;-77
2023/02/10 04:16:36;;;;;;;23.47;13.33;;;;;;;2.11;49.88;101904.84;5041065;27;101079;-79
2023/02/10 04:19:02;;;;;;;25.80;13.33;;;;;;;2.06;49.82;101898.66;5036709;27;101223;-79
2023/02/10 04:21:28;;;;;;;26.07;13.23;;;;;;;2.08;49.45;101909.06;5061823;27;97412;-81
2023/02/10 04:23:55;;;;;;;23.57;13.13;;;;;;;2.05;49.77;101902.09;5051890;27;97331;-77
2023/02/10 04:26:21;;;;;;;24.30;14.13;;;;;;;2.06;49.48;101911.59;5049827;27;101661;-77
2023/02/10 04:28:47;;;;;;;27.13;13.73;;;;;;;2.07;49.83;101915.97;5034674;27;101649;-78
2023/02/10 04:31:13;;;;;;;24.70;14.00;;;;;;;2.01;49.71;101911.50;5044958;27;98176;-78
2023/02/10 04:33:39;;;;;;;23.77;13.97;;;;;;;2.00;49.74;101916.63;5030307;27;97074;-80
2023/02/10 04:36:05;;;;;;;23.87;13.70;;;;;;;2.00;50.05;101904.53;5064946;27;102227;-77
2023/02/10 04:38:30;;;;;;;23.47;13.00;;;;;;;2.04;49.83;101914.16;5050139;27;100845;-77
2023/02/10 04:40:56;;;;;;;23.80;13.77;;;;;;;2.06;49.96;101923.69;5035309;27;96924;-77
2023/02/10 04:43:21;;;;;;;23.70;13.10;;;;;;;1.99;49.71;101895.03;5042656;27;97041;-79
2023/02/10 04:45:47;;;;;;;23.03;13.87;;;;;;;1.97;49.96;101906.19;5031210;27;100944;-77
2023/02/10 04:48:13;;;;;;;24.20;14.33;;;;;;;1.92;49.62;101898.31;5025583;27;101274;-80
2023/02/10 04:50:39;;;;;;;27.00;14.90;;;;;;;2.00;49.54;101919.22;5047752;27;97239;-80
2023/02/10 04:53:06;;;;;;;26.13;14.50;;;;;;;1.98;49.65;101915.72;5050954;27;96901;-77
2023/02/10 04:55:32;;;;;;;26.80;16.50;;;;;;;1.97;49.51;101913.97;5033767;27;101372;-77
2023/02/10 04:57:57;;;;;;;25.10;14.67;;;;;;;1.99;49.37;101917.47;5069132;27;97395;-78
2023/02/10 05:00:23;;;;;;;25.93;14.60;;;;;;;1.98;49.65;101921.78;5072350;27;97288;-79
2023/02/10 05:02:49;;;;;;;33.43;14.80;;;;;;;1.98;49.61;101926.09;5059276;27;97058;-78
2023/02/10 05:05:14;;;;;;;22.93;13.70;;;;;;;2.02;49.92;101922.72;5049092;27;97463;-81
2023/02/10 05:07:40;;;;;;;27.93;14.77;;;;;;;1.93;49.81;101907.81;5041923;27;97878;-79
2023/02/10 05:10:06;;;;;;;28.67;15.00;;;;;;;2.02;49.88;101918.41;5033587;27;96956;-79
2023/02/10 05:12:31;;;;;;;27.53;14.77;;;;;;;1.96;49.33;101901.84;5035206;27;97238;-79
2023/02/10 05:14:57;;;;;;;23.63;14.00;;;;;;;1.98;49.30;101911.44;5045049;27;100708;-80
2023/02/10 05:17:22;;;;;;;26.27;13.90;;;;;;;1.93;49.61;101906.94;5036274;27;97524;-81
2023/02/10 05:19:48;;;;;;;22.37;13.13;;;;;;;1.98;49.71;101919.19;5023582;27;97440;-78
2023/02/10 05:22:13;;;;;;;21.07;12.80;;;;;;;1.89;49.70;101908.59;5031831;27;97407;-80
2023/02/10 05:24:39;;;;;;;24.63;13.03;;;;;;;1.98;49.32;101934.72;5038833;27;101822;-78
2023/02/10 05:27:05;;;;;;;21.17;13.30;;;;;;;1.88;49.22;101917.19;4999384;27;100507;-78
2023/02/10 05:29:30;;;;;;;25.93;12.93;;;;;;;2.01;49.72;101941.72;4997800;28;97145;-77
2023/02/10 05:31:56;;;;;;;22.17;13.10;;;;;;;2.04;49.77;101941.78;5008421;27;97136;-78
2023/02/10 05:34:21;;;;;;;24.90;13.03;;;;;;;2.01;49.74;101928.75;5012235;27;97406;-77
2023/02/10 05:36:47;;;;;;;23.07;12.57;;;;;;;2.06;49.62;101936.63;5004559;27;101509;-82
2023/02/10 05:39:25;;;;;;;27.07;13.57;;;;;;;2.07;49.91;101936.69;5012434;27;97559;-79
2023/02/10 05:41:55;;;;;;;22.13;12.20;;;;;;;1.98;49.64;101911.44;4996958;27;97192;-79
2023/02/10 05:44:22;;;;;;;23.27;13.30;;;;;;;2.14;49.34;101945.50;5009191;27;101052;-77
2023/02/10 05:46:47;;;;;;;29.13;15.47;;;;;;;2.15;49.42;101949.81;4998829;27;101374;-80
2023/02/10 05:49:13;;;;;;;22.40;13.60;;;;;;;2.14;49.47;101946.38;5015543;27;97236;-79
2023/02/10 05:51:39;;;;;;;26.33;13.73;;;;;;;2.11;49.20;101941.09;5013796;27;97581;-80
2023/02/10 05:54:04;;;;;;;28.53;15.80;;;;;;;2.17;49.51;101954.22;5014020;27;102161;-82
2023/02/10 05:56:30;;;;;;;28.50;15.47;;;;;;;2.20;49.46;101967.25;5000576;27;99937;-83
2023/02/10 05:58:56;;;;;;;28.17;15.57;;;;;;;2.19;48.89;101955.16;4994395;27;97387;-83
2023/02/10 06:01:22;;;;;;;26.07;15.67;;;;;;;2.22;49.30;101962.13;5013419;27;97375;-86
2023/02/10 06:03:47;;;;;;;27.00;15.77;;;;;;;2.22;49.36;101963.00;5024040;27;101457;-85
2023/02/10 06:06:13;;;;;;;25.73;14.93;;;;;;;2.18;49.48;101952.50;5006159;27;100534;-82
2023/02/10 06:08:39;;;;;;;26.03;15.27;;;;;;;2.26;49.07;101969.13;5005246;27;97237;-87
2023/02/10 06:11:04;;;;;;;28.33;14.73;;;;;;;2.23;49.26;101963.88;4999329;27;96945;-83
2023/02/10 06:13:30;;;;;;;30.07;15.17;;;;;;;2.30;48.98;101977.84;5044316;27;97420;-82
2023/02/10 06:15:55;;;;;;;28.33;14.60;;;;;;;2.24;49.21;101970.78;4993481;27;101279;-82
2023/02/10 06:18:21;;;;;;;25.73;15.10;;;;;;;2.33;49.22;101984.03;4991515;28;97099;-82
2023/02/10 06:20:47;;;;;;;21.60;13.27;;;;;;;2.20;49.70;101963.78;4991100;28;96904;-84
2023/02/10 06:23:13;;;;;;;28.90;14.37;;;;;;;2.35;49.33;101984.91;4990554;28;101455;-83
2023/02/10 06:25:39;;;;;;;24.53;13.33;;;;;;;2.38;49.16;101995.34;5005281;27;100953;-83
2023/02/10 06:28:05;;;;;;;21.23;13.00;;;;;;;2.39;49.17;102004.03;5051744;27;97089;-84
2023/02/10 06:30:30;;;;;;;27.27;13.10;;;;;;;2.24;49.20;101975.97;5037810;27;96936;-82
2023/02/10 06:32:57;;;;;;;25.60;14.00;;;;;;;2.22;49.31;101975.94;5043466;27;99294;-84
2023/02/10 06:35:23;;;;;;;21.60;12.40;;;;;;;2.43;49.83;102011.91;5050445;27;99811;-80
2023/02/10 06:37:48;;;;;;;30.63;14.90;;;;;;;2.44;49.99;102003.31;5047085;27;97362;-80
2023/02/10 06:40:15;;;;;;;28.73;15.17;;;;;;;2.44;49.31;101999.81;5034984;27;96987;-81
2023/02/10 06:42:40;;;;;;;23.23;13.13;;;;;;;2.46;49.87;101993.84;5032439;27;101330;-86
2023/02/10 06:45:08;;;;;;;25.03;13.87;;;;;;;2.51;49.48;102001.75;5035344;27;101259;-80
2023/02/10 06:47:34;;;;;;;28.63;15.83;;;;;;;2.38;49.40;101979.81;5036372;27;97260;-81
2023/02/10 06:50:00;;;;;;;31.93;16.83;;;;;;;2.55;49.30;102007.91;5045764;27;97429;-81
2023/02/10 06:52:26;;;;;;;27.17;15.90;;;;;;;2.55;49.50;102005.31;5048434;27;97870;-80
2023/02/10 06:54:52;;;;;;;28.30;15.63;;;;;;;2.46;49.23;101999.03;5052119;27;97970;-83
2023/02/10 06:57:18;;;;;;;27.17;14.90;;;;;;;2.60;49.40;102011.50;5049493;27;96798;-80
2023/02/10 06:59:43;;;;;;;26.37;15.47;;;;;;;2.37;49.40;101969.41;5045872;27;96875;-83
2023/02/10 07:02:12;;;;;;;28.13;15.70;;;;;;;2.63;49.53;102015.03;5051192;27;101997;-80
2023/02/10 07:04:38;;;;;;;27.40;15.37;;;;;;;2.53;49.26;102000.09;5033500;27;101340;-80
2023/02/10 07:07:04;;;;;;;26.07;15.40;;;;;;;2.61;49.35;102001.13;5046284;27;97197;-80
2023/02/10 07:09:29;;;;;;;24.23;14.13;;;;;;;2.65;49.10;102008.19;5048588;27;97459;-81
2023/02/10 07:11:57;;;;;;;23.67;13.57;;;;;;;2.63;49.40;102011.56;5026431;27;100783;-81
2023/02/10 07:14:22;;;;;;;26.97;14.57;;;;;;;2.70;49.18;102016.94;5044192;27;97923;-88
2023/02/10 07:16:48;;;;;;;34.17;15.60;;;;;;;2.67;49.27;102009.06;5029649;27;96729;-90
2023/02/10 07:19:13;;;;;;;28.20;14.83;;;;;;;2.74;49.17;102019.63;5024097;27;97806;-90
2023/02/10 07:21:39;;;;;;;29.50;15.23;;;;;;;2.54;49.05;101990.59;5048179;27;100144;-91
2023/02/10 07:24:05;;;;;;;26.97;15.33;;;;;;;2.55;49.33;101993.22;5068066;27;99681;-91
2023/02/10 07:26:30;;;;;;;30.37;15.87;;;;;;;2.75;49.19;102024.84;5066413;27;97253;-90
2023/02/10 07:28:56;;;;;;;26.87;14.77;;;;;;;2.80;49.34;102032.75;5032717;27;97923;-89
2023/02/10 07:31:21;;;;;;;26.17;14.70;;;;;;;2.60;49.06;101999.41;5037024;27;100333;-90
2023/02/10 07:33:47;;;;;;;31.10;15.17;;;;;;;2.62;49.04;101989.94;5036555;27;101521;-90
2023/02/10 07:36:13;;;;;;;27.80;15.07;;;;;;;2.82;49.29;102031.94;5036883;27;96777;-90
2023/02/10 07:38:38;;;;;;;28.73;15.03;;;;;;;2.87;49.41;102035.50;5047848;27;96867;-90
2023/02/10 07:41:05;;;;;;;23.50;13.97;;;;;;;2.88;49.26;102038.97;5034626;27;101256;-90
2023/02/10 07:43:31;;;;;;;25.80;14.07;;;;;;;2.56;49.33;101997.56;5041535;27;100763;-88
2023/02/10 07:46:03;;;;;;;25.67;13.27;;;;;;;2.82;49.44;102029.34;5049154;27;96869;-82
2023/02/10 07:48:28;;;;;;;25.43;14.40;;;;;;;2.77;49.35;102017.97;5052079;27;96782;-84
2023/02/10 07:50:54;;;;;;;24.83;12.80;;;;;;;2.83;49.68;102023.31;5051504;27;101737;-85
2023/02/10 07:53:20;;;;;;;22.07;13.10;;;;;;;2.94;49.56;102037.44;5063096;27;101779;-85
2023/02/10 07:55:46;;;;;;;22.60;12.77;;;;;;;2.92;49.69;102030.44;5035940;27;97233;-84
2023/02/10 07:58:12;;;;;;;21.77;13.20;;;;;;;2.98;49.71;102029.72;5052453;27;97205;-85
2023/02/10 08:00:38;;;;;;;22.70;13.27;;;;;;;2.99;49.87;102031.47;5019563;27;101833;-86
2023/02/10 08:03:04;;;;;;;25.33;13.70;;;;;;;3.03;49.68;102039.38;5035387;27;101680;-85
2023/02/10 08:05:30;;;;;;;26.30;13.47;;;;;;;3.04;49.64;102041.13;5066058;27;97192;-86
2023/02/10 08:07:55;;;;;;;25.07;13.87;;;;;;;3.01;49.65;102037.56;5045125;27;97835;-87
2023/02/10 08:10:21;;;;;;;29.13;15.87;;;;;;;3.06;49.66;102041.16;5053519;27;101780;-87
2023/02/10 08:12:47;;;;;;;25.00;13.53;;;;;;;2.85;49.97;102005.19;5039458;27;101422;-86
2023/02/10 08:15:16;;;;;;;28.53;13.63;;;;;;;3.10;50.22;102038.66;5043057;27;97234;-86
2023/02/10 08:17:43;;;;;;;26.93;15.17;;;;;;;3.07;50.07;102017.84;5035427;27;96931;-87
2023/02/10 08:20:09;;;;;;;24.23;14.10;;;;;;;3.12;50.02;102007.56;5046210;27;101442;-86
2023/02/10 08:22:35;;;;;;;25.10;14.53;;;;;;;3.23;50.76;102029.47;5042260;27;98021;-88
2023/02/10 08:25:00;;;;;;;28.00;15.20;;;;;;;3.26;50.45;102031.22;5052650;27;97499;-89
2023/02/10 08:27:26;;;;;;;27.73;15.60;;;;;;;3.26;51.02;102026.03;5035820;27;96962;-88
2023/02/10 08:29:51;;;;;;;31.13;15.83;;;;;;;3.28;51.22;102027.84;5037441;27;100543;-88
2023/02/10 08:32:18;;;;;;;27.73;15.13;;;;;;;3.38;51.44;102039.31;5034878;27;99919;-88
2023/02/10 08:34:48;;;;;;;31.50;17.17;;;;;;;3.25;51.76;102007.00;5054666;27;97199;-88
2023/02/10 08:37:15;;;;;;;30.50;17.73;;;;;;;3.29;51.90;102010.56;5056333;27;96871;-87
2023/02/10 08:39:41;;;;;;;32.30;17.57;;;;;;;3.42;52.26;102032.47;5031531;27;100154;-89
2023/02/10 08:42:07;;;;;;;33.50;17.07;;;;;;;3.42;52.35;102030.75;5050663;27;98284;-89
2023/02/10 08:44:33;;;;;;;31.87;18.50;;;;;;;3.40;52.59;102033.31;5055726;27;97329;-89
2023/02/10 08:46:58;;;;;;;33.87;19.43;;;;;;;3.47;52.87;102039.53;5049138;27;97114;-89
2023/02/10 08:49:24;;;;;;;33.43;17.23;;;;;;;3.27;52.88;101992.34;5037546;27;101480;-89
2023/02/10 08:51:53;;;;;;;39.53;17.63;;;;;;;3.43;53.23;102023.84;5036070;27;101319;-90
2023/02/10 08:54:19;;;;;;;32.10;18.07;;;;;;;3.56;53.73;102047.50;5049200;27;97322;-90
2023/02/10 08:56:45;;;;;;;34.63;18.67;;;;;;;3.43;54.27;102029.91;5037118;27;97590;-89
2023/02/10 08:59:11;;;;;;;29.83;17.73;;;;;;;3.51;54.01;102035.28;5036271;27;101362;-90
2023/02/10 09:01:37;;;;;;;35.07;18.63;;;;;;;3.49;54.24;102023.97;5029660;27;100612;-89
2023/02/10 09:04:03;;;;;;;33.77;18.43;;;;;;;3.58;54.51;102039.78;5070428;27;96738;-89
2023/02/10 09:06:38;;;;;;;34.20;18.57;;;;;;;3.41;54.79;102016.03;5058137;27;96818;-89
2023/02/10 09:09:06;;;;;;;35.23;19.13;;;;;;;3.62;55.01;102042.44;5058831;27;100021;-89
2023/02/10 09:11:31;;;;;;;32.70;17.47;;;;;;;3.65;55.33;102045.97;5035400;27;101362;-89
2023/02/10 09:13:57;;;;;;;32.27;17.80;;;;;;;3.67;55.55;102032.19;5057934;27;96804;-89
2023/02/10 09:16:23;;;;;;;31.10;17.73;;;;;;;3.73;55.73;102031.44;5034607;27;97808;-89
2023/02/10 09:18:48;;;;;;;31.20;17.87;;;;;;;3.83;55.92;102038.56;5048702;27;101729;-89
2023/02/10 09:21:14;;;;;;;31.13;18.07;;;;;;;3.92;55.64;102038.75;5042899;27;101098;-88
2023/02/10 09:23:39;;;;;;;34.40;18.37;;;;;;;3.95;56.03;102037.94;5035757;27;97411;-89
2023/02/10 09:26:05;;;;;;;35.00;18.10;;;;;;;3.76;55.95;102001.19;5038268;27;97514;-90
2023/02/10 09:28:31;;;;;;;28.30;16.70;;;;;;;4.09;56.01;102049.50;5036441;27;101025;-89
2023/02/10 09:30:56;;;;;;;32.67;17.60;;;;;;;3.95;55.86;102019.75;5033740;27;101307;-89
2023/02/10 09:33:22;;;;;;;31.77;16.40;;;;;;;3.72;55.96;101983.78;5033871;27;97104;-89
2023/02/10 09:35:47;;;;;;;28.80;16.67;;;;;;;4.27;56.23;102059.38;5032009;27;97229;-88
2023/02/10 09:38:13;;;;;;;26.47;16.13;;;;;;;4.20;56.21;102034.97;5046903;27;97734;-88
2023/02/10 09:40:58;;;;;;;27.83;16.20;;;;;;;4.56;56.04;102059.06;5036382;27;101148;-89
2023/02/10 09:43:49;;;;;;;28.83;15.33;;;;;;;4.52;56.16;102038.19;5060663;27;97318;-88
2023/02/10 09:46:33;;;;;;;29.27;14.53;;;;;;;4.78;56.22;102060.31;5047533;27;97233;-87
2023/02/10 09:49:33;;;;;;;25.80;15.07;;;;;;;4.90;56.05;102055.31;5043934;27;101394;-90
2023/02/10 09:52:09;;;;;;;26.83;15.17;;;;;;;5.06;55.66;102057.34;5032808;27;101841;-88
2023/02/10 09:54:35;;;;;;;31.83;16.90;;;;;;;5.20;55.62;102062.75;5067901;27;97022;-88
2023/02/10 09:57:11;;;;;;;32.17;16.97;;;;;;;5.16;55.67;101999.34;5029004;27;97351;-87
2023/02/10 09:59:37;;;;;;;29.37;16.47;;;;;;;5.90;55.03;102066.38;5032653;27;102448;-86
2023/02/10 10:02:11;;;;;;;26.13;15.73;;;;;;;6.24;54.28;102058.13;5052688;27;98012;-84
2023/02/10 10:04:37;;;;;;;30.20;17.53;;;;;;;6.61;52.76;102068.97;5069538;27;96714;-84
2023/02/10 10:07:12;;;;;;;29.77;17.07;;;;;;;6.69;52.77;102078.63;5037989;27;97692;-84
2023/02/10 10:09:45;;;;;;;28.47;17.13;;;;;;;6.63;52.40;102062.00;5058361;27;101780;-84
2023/02/10 10:12:15;;;;;;;32.87;18.37;;;;;;;6.51;52.70;102074.06;5054407;27;101642;-84
2023/02/10 10:14:43;;;;;;;30.63;17.43;;;;;;;6.28;52.88;102060.78;5052230;27;97906;-84
2023/02/10 10:17:27;;;;;;;27.60;15.87;;;;;;;6.29;52.93;102070.34;5041444;27;96845;-84
2023/02/10 10:20:02;;;;;;;28.97;16.83;;;;;;;6.32;53.52;102078.22;5065321;27;97827;-84
2023/02/10 10:22:36;;;;;;;35.70;17.00;;;;;;;6.32;53.09;102079.94;5069007;27;97814;-84
2023/02/10 10:25:27;;;;;;;29.53;15.90;;;;;;;6.25;53.39;102068.53;5069091;27;97881;-84
2023/02/10 10:28:01;;;;;;;29.00;15.83;;;;;;;6.09;53.86;102067.50;5050666;27;97142;-84
2023/02/10 10:30:34;;;;;;;29.57;15.23;;;;;;;6.19;53.65;102071.09;5041818;27;100341;-83
2023/02/10 10:33:05;;;;;;;27.67;14.77;;;;;;;6.07;53.54;102052.69;5041251;27;100725;-83
2023/02/10 10:35:37;;;;;;;27.57;14.60;;;;;;;6.16;53.74;102072.78;5034945;27;97241;-84
2023/02/10 10:38:19;;;;;;;28.93;15.63;;;;;;;6.16;53.98;102076.28;5027584;27;97463;-83
2023/02/10 10:40:46;;;;;;;35.77;15.93;;;;;;;6.16;54.13;102078.88;5048156;27;101349;-83
2023/02/10 10:43:19;;;;;;;26.40;16.03;;;;;;;6.01;53.68;102066.53;5035824;27;101906;-82
2023/02/10 10:45:48;;;;;;;33.13;16.87;;;;;;;5.95;54.17;102076.00;5034407;27;97414;-77
2023/02/10 10:48:26;;;;;;;33.03;17.70;;;;;;;5.86;54.41;102068.91;5033876;27;97223;-82
2023/02/10 10:50:58;;;;;;;35.93;17.90;;;;;;;5.75;54.30;102058.34;5033052;27;101329;-84
2023/02/10 10:53:37;;;;;;;32.93;18.20;;;;;;;5.80;54.44;102061.88;5033979;27;101642;-83
2023/02/10 10:56:29;;;;;;;33.00;17.20;;;;;;;5.78;54.07;102066.19;5045699;27;97243;-76
2023/02/10 10:58:56;;;;;;;38.28;19.30;;;;;;;5.73;54.63;102061.78;5041752;27;97399;-78
2023/02/10 11:01:43;;;;;;;37.87;18.83;;;;;;;5.75;54.13;102060.06;5045957;27;101873;-79
2023/02/10 11:04:14;;;;;;;33.80;19.50;;;;;;;5.75;54.32;102060.06;5042869;27;101700;-78
2023/02/10 11:06:41;;;;;;;32.42;18.75;;;;;;;5.57;54.59;102039.84;5036344;27;98096;-78
2023/02/10 11:09:22;;;;;;;34.13;18.77;;;;;;;5.62;54.37;102030.38;5031708;27;98057;-79
2023/02/10 11:11:47;;;;;;;32.87;18.33;;;;;;;5.71;54.43;102040.94;5038601;27;101947;-82
2023/02/10 11:14:21;;;;;;;33.10;18.93;;;;;;;5.63;54.92;102040.81;5031090;27;101309;-79
2023/02/10 11:16:50;;;;;;;33.13;18.80;;;;;;;5.61;54.69;102026.91;5053175;27;97661;-79
2023/02/10 11:19:26;;;;;;;32.87;18.07;;;;;;;5.73;54.54;102038.31;5031195;27;96791;-80
2023/02/10 11:21:55;;;;;;;38.83;19.87;;;;;;;5.73;54.56;102030.50;5041799;27;101421;-79
2023/02/10 11:24:53;;;;;;;30.63;18.60;;;;;;;5.79;54.32;102044.50;5043324;27;101416;-80